sensor_id;sensor_type;location;lat;lon;timestamp;P1;durP1;ratioP1;P2;durP2;ratioP2
9128;SDS011;4599;50.906;6.786;2022-12-18T00:03:55;16.93;;;9.40;;
9128;SDS011;4599;50.906;6.786;2022-12-18T00:07:58;21.47;;;9.10;;
9128;SDS011;4599;50.906;6.786;2022-12-18T00:11:59;20.53;;;9.67;;
9128;SDS011;4599;50.906;6.786;2022-12-18T00:16:16;19.00;;;9.57;;
9128;SDS011;4599;50.906;6.786;2022-12-18T00:20:20;16.57;;;9.10;;
9128;SDS011;4599;50.906;6.786;2022-12-18T00:24:23;14.70;;;8.53;;
9128;SDS011;4599;50.906;6.786;2022-12-18T00:28:24;19.40;;;10.40;;
9128;SDS011;4599;50.906;6.786;2022-12-18T00:32:26;17.40;;;9.30;;
9128;SDS011;4599;50.906;6.786;2022-12-18T00:36:28;17.77;;;8.57;;
9128;SDS011;4599;50.906;6.786;2022-12-18T00:40:32;17.83;;;9.60;;
9128;SDS011;4599;50.906;6.786;2022-12-18T00:44:33;20.80;;;10.30;;
9128;SDS011;4599;50.906;6.786;2022-12-18T00:48:35;18.13;;;9.80;;
9128;SDS011;4599;50.906;6.786;2022-12-18T00:52:37;17.47;;;9.57;;
9128;SDS011;4599;50.906;6.786;2022-12-18T00:56:39;18.00;;;10.10;;
9128;SDS011;4599;50.906;6.786;2022-12-18T01:00:48;22.30;;;9.47;;
9128;SDS011;4599;50.906;6.786;2022-12-18T01:04:51;19.93;;;10.67;;
9128;SDS011;4599;50.906;6.786;2022-12-18T01:08:52;21.63;;;9.93;;
9128;SDS011;4599;50.906;6.786;2022-12-18T01:12:55;16.30;;;8.63;;
9128;SDS011;4599;50.906;6.786;2022-12-18T01:16:56;18.33;;;10.17;;
9128;SDS011;4599;50.906;6.786;2022-12-18T01:20:58;19.70;;;9.50;;
9128;SDS011;4599;50.906;6.786;2022-12-18T01:24:59;20.40;;;10.13;;
9128;SDS011;4599;50.906;6.786;2022-12-18T01:29:02;17.33;;;8.97;;
9128;SDS011;4599;50.906;6.786;2022-12-18T01:33:04;17.77;;;9.80;;
9128;SDS011;4599;50.906;6.786;2022-12-18T01:37:06;18.93;;;9.97;;
9128;SDS011;4599;50.906;6.786;2022-12-18T01:41:08;20.20;;;10.30;;
9128;SDS011;4599;50.906;6.786;2022-12-18T01:45:24;16.10;;;8.83;;
9128;SDS011;4599;50.906;6.786;2022-12-18T01:49:27;19.00;;;9.27;;
9128;SDS011;4599;50.906;6.786;2022-12-18T01:53:29;17.70;;;9.30;;
9128;SDS011;4599;50.906;6.786;2022-12-18T01:57:31;21.97;;;10.63;;
9128;SDS011;4599;50.906;6.786;2022-12-18T02:01:34;23.40;;;9.50;;
9128;SDS011;4599;50.906;6.786;2022-12-18T02:05:40;17.93;;;9.80;;
9128;SDS011;4599;50.906;6.786;2022-12-18T02:09:47;17.07;;;9.37;;
9128;SDS011;4599;50.906;6.786;2022-12-18T02:13:53;20.47;;;10.13;;
9128;SDS011;4599;50.906;6.786;2022-12-18T02:18:07;20.10;;;9.80;;
9128;SDS011;4599;50.906;6.786;2022-12-18T02:22:16;19.00;;;9.37;;
9128;SDS011;4599;50.906;6.786;2022-12-18T02:26:28;22.33;;;10.47;;
9128;SDS011;4599;50.906;6.786;2022-12-18T02:30:35;21.03;;;10.73;;
9128;SDS011;4599;50.906;6.786;2022-12-18T02:34:40;18.93;;;10.27;;
9128;SDS011;4599;50.906;6.786;2022-12-18T02:38:44;18.97;;;10.70;;
9128;SDS011;4599;50.906;6.786;2022-12-18T02:42:48;18.27;;;9.83;;
9128;SDS011;4599;50.906;6.786;2022-12-18T02:46:50;26.50;;;10.67;;
9128;SDS011;4599;50.906;6.786;2022-12-18T02:50:55;19.90;;;10.70;;
9128;SDS011;4599;50.906;6.786;2022-12-18T02:55:08;19.10;;;9.60;;
9128;SDS011;4599;50.906;6.786;2022-12-18T02:59:21;21.03;;;10.70;;
9128;SDS011;4599;50.906;6.786;2022-12-18T03:03:31;20.17;;;9.90;;
9128;SDS011;4599;50.906;6.786;2022-12-18T03:07:42;23.27;;;10.87;;
9128;SDS011;4599;50.906;6.786;2022-12-18T03:11:48;18.47;;;10.63;;
9128;SDS011;4599;50.906;6.786;2022-12-18T03:15:57;19.53;;;9.40;;
9128;SDS011;4599;50.906;6.786;2022-12-18T03:20:02;18.43;;;9.83;;
9128;SDS011;4599;50.906;6.786;2022-12-18T03:24:07;20.70;;;11.00;;
9128;SDS011;4599;50.906;6.786;2022-12-18T03:28:12;18.33;;;9.93;;
9128;SDS011;4599;50.906;6.786;2022-12-18T03:32:19;18.37;;;9.30;;
9128;SDS011;4599;50.906;6.786;2022-12-18T03:36:25;20.80;;;9.83;;
9128;SDS011;4599;50.906;6.786;2022-12-18T03:40:29;18.63;;;9.60;;
9128;SDS011;4599;50.906;6.786;2022-12-18T03:44:35;20.37;;;9.80;;
9128;SDS011;4599;50.906;6.786;2022-12-18T03:48:46;22.07;;;10.43;;
9128;SDS011;4599;50.906;6.786;2022-12-18T03:52:53;15.97;;;8.43;;
9128;SDS011;4599;50.906;6.786;2022-12-18T03:57:02;19.97;;;9.63;;
9128;SDS011;4599;50.906;6.786;2022-12-18T04:01:07;19.20;;;10.83;;
9128;SDS011;4599;50.906;6.786;2022-12-18T04:05:13;21.33;;;11.07;;
9128;SDS011;4599;50.906;6.786;2022-12-18T04:09:16;19.07;;;10.10;;
9128;SDS011;4599;50.906;6.786;2022-12-18T04:13:23;18.60;;;10.33;;
9128;SDS011;4599;50.906;6.786;2022-12-18T04:17:25;18.63;;;9.63;;
9128;SDS011;4599;50.906;6.786;2022-12-18T04:21:28;21.80;;;10.13;;
9128;SDS011;4599;50.906;6.786;2022-12-18T04:25:29;21.20;;;10.80;;
9128;SDS011;4599;50.906;6.786;2022-12-18T04:29:31;20.93;;;10.43;;
9128;SDS011;4599;50.906;6.786;2022-12-18T04:33:32;17.87;;;9.33;;
9128;SDS011;4599;50.906;6.786;2022-12-18T04:37:35;18.97;;;10.10;;
9128;SDS011;4599;50.906;6.786;2022-12-18T04:41:37;20.23;;;9.97;;
9128;SDS011;4599;50.906;6.786;2022-12-18T04:45:38;19.47;;;10.83;;
9128;SDS011;4599;50.906;6.786;2022-12-18T04:49:39;21.23;;;9.83;;
9128;SDS011;4599;50.906;6.786;2022-12-18T04:53:42;19.03;;;9.37;;
9128;SDS011;4599;50.906;6.786;2022-12-18T04:57:44;22.10;;;11.30;;
9128;SDS011;4599;50.906;6.786;2022-12-18T05:01:45;18.30;;;8.73;;
9128;SDS011;4599;50.906;6.786;2022-12-18T05:05:48;17.67;;;9.63;;
9128;SDS011;4599;50.906;6.786;2022-12-18T05:09:52;19.17;;;9.83;;
9128;SDS011;4599;50.906;6.786;2022-12-18T05:13:53;20.97;;;10.20;;
9128;SDS011;4599;50.906;6.786;2022-12-18T05:17:55;19.20;;;9.73;;
9128;SDS011;4599;50.906;6.786;2022-12-18T05:21:56;19.57;;;9.73;;
9128;SDS011;4599;50.906;6.786;2022-12-18T05:26:01;18.10;;;9.67;;
9128;SDS011;4599;50.906;6.786;2022-12-18T05:30:04;19.97;;;10.70;;
9128;SDS011;4599;50.906;6.786;2022-12-18T05:34:06;22.93;;;10.53;;
9128;SDS011;4599;50.906;6.786;2022-12-18T05:38:07;19.03;;;10.37;;
9128;SDS011;4599;50.906;6.786;2022-12-18T05:42:10;17.90;;;9.93;;
9128;SDS011;4599;50.906;6.786;2022-12-18T05:46:12;22.97;;;10.27;;
9128;SDS011;4599;50.906;6.786;2022-12-18T05:50:15;19.50;;;10.57;;
9128;SDS011;4599;50.906;6.786;2022-12-18T05:54:17;20.03;;;10.90;;
9128;SDS011;4599;50.906;6.786;2022-12-18T05:58:20;25.70;;;10.37;;
9128;SDS011;4599;50.906;6.786;2022-12-18T06:02:21;18.70;;;9.73;;
9128;SDS011;4599;50.906;6.786;2022-12-18T06:06:24;17.13;;;8.93;;
9128;SDS011;4599;50.906;6.786;2022-12-18T06:10:26;21.23;;;10.40;;
9128;SDS011;4599;50.906;6.786;2022-12-18T06:14:29;20.57;;;10.40;;
9128;SDS011;4599;50.906;6.786;2022-12-18T06:18:31;21.20;;;10.43;;
9128;SDS011;4599;50.906;6.786;2022-12-18T06:22:32;18.53;;;9.60;;
9128;SDS011;4599;50.906;6.786;2022-12-18T06:26:36;20.13;;;10.73;;
9128;SDS011;4599;50.906;6.786;2022-12-18T06:30:39;19.50;;;9.07;;
9128;SDS011;4599;50.906;6.786;2022-12-18T06:34:43;20.27;;;10.30;;
9128;SDS011;4599;50.906;6.786;2022-12-18T06:38:45;23.07;;;11.40;;
9128;SDS011;4599;50.906;6.786;2022-12-18T06:42:46;22.90;;;11.83;;
9128;SDS011;4599;50.906;6.786;2022-12-18T06:46:49;20.67;;;9.57;;
9128;SDS011;4599;50.906;6.786;2022-12-18T06:50:51;20.97;;;10.43;;
9128;SDS011;4599;50.906;6.786;2022-12-18T06:54:52;14.50;;;8.30;;
9128;SDS011;4599;50.906;6.786;2022-12-18T06:58:54;16.43;;;9.60;;
9128;SDS011;4599;50.906;6.786;2022-12-18T07:02:56;22.43;;;10.47;;
9128;SDS011;4599;50.906;6.786;2022-12-18T07:06:58;13.30;;;7.60;;
9128;SDS011;4599;50.906;6.786;2022-12-18T07:11:02;22.33;;;10.93;;
9128;SDS011;4599;50.906;6.786;2022-12-18T07:15:05;18.67;;;9.80;;
9128;SDS011;4599;50.906;6.786;2022-12-18T07:19:09;22.27;;;10.63;;
9128;SDS011;4599;50.906;6.786;2022-12-18T07:23:10;22.20;;;10.03;;
9128;SDS011;4599;50.906;6.786;2022-12-18T07:27:12;19.70;;;9.77;;
9128;SDS011;4599;50.906;6.786;2022-12-18T07:31:14;22.97;;;10.50;;
9128;SDS011;4599;50.906;6.786;2022-12-18T07:35:19;20.77;;;10.17;;
9128;SDS011;4599;50.906;6.786;2022-12-18T07:39:25;17.63;;;8.63;;
9128;SDS011;4599;50.906;6.786;2022-12-18T07:43:26;20.70;;;10.80;;
9128;SDS011;4599;50.906;6.786;2022-12-18T07:47:28;18.83;;;8.97;;
9128;SDS011;4599;50.906;6.786;2022-12-18T07:51:34;18.43;;;10.13;;
9128;SDS011;4599;50.906;6.786;2022-12-18T07:55:35;17.47;;;7.97;;
9128;SDS011;4599;50.906;6.786;2022-12-18T07:59:57;14.03;;;8.10;;
9128;SDS011;4599;50.906;6.786;2022-12-18T08:03:58;15.17;;;9.03;;
9128;SDS011;4599;50.906;6.786;2022-12-18T08:08:01;15.23;;;8.17;;
9128;SDS011;4599;50.906;6.786;2022-12-18T08:12:03;21.67;;;9.47;;
9128;SDS011;4599;50.906;6.786;2022-12-18T08:16:05;20.57;;;11.23;;
9128;SDS011;4599;50.906;6.786;2022-12-18T08:20:08;19.43;;;10.23;;
9128;SDS011;4599;50.906;6.786;2022-12-18T08:24:12;19.13;;;10.60;;
9128;SDS011;4599;50.906;6.786;2022-12-18T08:28:13;22.40;;;10.63;;
9128;SDS011;4599;50.906;6.786;2022-12-18T08:32:15;22.47;;;11.83;;
9128;SDS011;4599;50.906;6.786;2022-12-18T08:36:16;15.80;;;8.97;;
9128;SDS011;4599;50.906;6.786;2022-12-18T08:40:19;17.73;;;8.77;;
9128;SDS011;4599;50.906;6.786;2022-12-18T08:44:21;20.10;;;10.50;;
9128;SDS011;4599;50.906;6.786;2022-12-18T08:48:22;20.17;;;10.43;;
9128;SDS011;4599;50.906;6.786;2022-12-18T08:52:24;17.70;;;9.03;;
9128;SDS011;4599;50.906;6.786;2022-12-18T08:56:27;19.07;;;10.53;;
9128;SDS011;4599;50.906;6.786;2022-12-18T09:00:28;20.57;;;9.57;;
9128;SDS011;4599;50.906;6.786;2022-12-18T09:04:30;18.27;;;10.27;;
9128;SDS011;4599;50.906;6.786;2022-12-18T09:08:31;12.23;;;7.63;;
9128;SDS011;4599;50.906;6.786;2022-12-18T09:12:34;18.53;;;9.77;;
9128;SDS011;4599;50.906;6.786;2022-12-18T09:16:35;18.40;;;10.30;;
9128;SDS011;4599;50.906;6.786;2022-12-18T09:20:37;18.93;;;9.60;;
9128;SDS011;4599;50.906;6.786;2022-12-18T09:24:39;18.00;;;9.70;;
9128;SDS011;4599;50.906;6.786;2022-12-18T09:28:42;20.10;;;10.23;;
9128;SDS011;4599;50.906;6.786;2022-12-18T09:32:43;16.40;;;9.07;;
9128;SDS011;4599;50.906;6.786;2022-12-18T09:36:45;19.77;;;9.93;;
9128;SDS011;4599;50.906;6.786;2022-12-18T09:40:49;22.03;;;10.03;;
9128;SDS011;4599;50.906;6.786;2022-12-18T09:44:55;17.90;;;10.00;;
9128;SDS011;4599;50.906;6.786;2022-12-18T09:48:58;16.40;;;9.60;;
9128;SDS011;4599;50.906;6.786;2022-12-18T09:53:02;20.30;;;11.33;;
9128;SDS011;4599;50.906;6.786;2022-12-18T09:57:09;18.27;;;10.83;;
9128;SDS011;4599;50.906;6.786;2022-12-18T10:01:17;17.10;;;9.87;;
9128;SDS011;4599;50.906;6.786;2022-12-18T10:05:24;19.37;;;8.47;;
9128;SDS011;4599;50.906;6.786;2022-12-18T10:09:36;22.13;;;11.50;;
9128;SDS011;4599;50.906;6.786;2022-12-18T10:13:45;14.40;;;6.97;;
9128;SDS011;4599;50.906;6.786;2022-12-18T10:17:54;18.23;;;10.10;;
9128;SDS011;4599;50.906;6.786;2022-12-18T10:22:01;15.03;;;8.70;;
9128;SDS011;4599;50.906;6.786;2022-12-18T10:26:11;15.30;;;9.57;;
9128;SDS011;4599;50.906;6.786;2022-12-18T10:30:13;14.50;;;8.37;;
9128;SDS011;4599;50.906;6.786;2022-12-18T10:34:17;14.67;;;8.53;;
9128;SDS011;4599;50.906;6.786;2022-12-18T10:38:23;21.47;;;10.90;;
9128;SDS011;4599;50.906;6.786;2022-12-18T10:42:27;16.80;;;10.30;;
9128;SDS011;4599;50.906;6.786;2022-12-18T10:46:28;13.73;;;7.97;;
9128;SDS011;4599;50.906;6.786;2022-12-18T10:50:32;19.30;;;8.40;;
9128;SDS011;4599;50.906;6.786;2022-12-18T10:54:59;18.33;;;9.90;;
9128;SDS011;4599;50.906;6.786;2022-12-18T10:59:04;18.77;;;9.37;;
9128;SDS011;4599;50.906;6.786;2022-12-18T11:03:11;18.33;;;9.73;;
9128;SDS011;4599;50.906;6.786;2022-12-18T11:12:01;17.43;;;8.50;;
9128;SDS011;4599;50.906;6.786;2022-12-18T11:16:04;18.53;;;9.80;;
9128;SDS011;4599;50.906;6.786;2022-12-18T11:20:07;15.77;;;9.03;;
9128;SDS011;4599;50.906;6.786;2022-12-18T11:24:25;16.57;;;10.03;;
9128;SDS011;4599;50.906;6.786;2022-12-18T11:28:38;15.20;;;8.97;;
9128;SDS011;4599;50.906;6.786;2022-12-18T11:32:42;18.50;;;10.00;;
9128;SDS011;4599;50.906;6.786;2022-12-18T11:36:47;15.87;;;9.20;;
9128;SDS011;4599;50.906;6.786;2022-12-18T11:40:51;19.27;;;10.10;;
9128;SDS011;4599;50.906;6.786;2022-12-18T11:44:58;18.70;;;10.03;;
9128;SDS011;4599;50.906;6.786;2022-12-18T11:49:03;18.73;;;10.43;;
9128;SDS011;4599;50.906;6.786;2022-12-18T11:53:11;20.27;;;11.70;;
9128;SDS011;4599;50.906;6.786;2022-12-18T11:57:14;22.13;;;12.47;;
9128;SDS011;4599;50.906;6.786;2022-12-18T12:01:34;19.83;;;12.10;;
9128;SDS011;4599;50.906;6.786;2022-12-18T12:10:15;16.87;;;9.50;;
9128;SDS011;4599;50.906;6.786;2022-12-18T12:14:32;21.77;;;10.37;;
9128;SDS011;4599;50.906;6.786;2022-12-18T12:18:55;17.17;;;10.37;;
9128;SDS011;4599;50.906;6.786;2022-12-18T12:23:05;24.20;;;12.33;;
9128;SDS011;4599;50.906;6.786;2022-12-18T12:27:19;16.13;;;9.43;;
9128;SDS011;4599;50.906;6.786;2022-12-18T12:31:30;17.53;;;8.50;;
9128;SDS011;4599;50.906;6.786;2022-12-18T12:35:46;20.53;;;12.07;;
9128;SDS011;4599;50.906;6.786;2022-12-18T12:39:53;14.73;;;8.57;;
9128;SDS011;4599;50.906;6.786;2022-12-18T12:43:56;18.43;;;10.47;;
9128;SDS011;4599;50.906;6.786;2022-12-18T12:48:01;17.27;;;9.70;;
9128;SDS011;4599;50.906;6.786;2022-12-18T12:52:10;18.63;;;9.60;;
9128;SDS011;4599;50.906;6.786;2022-12-18T12:56:16;23.57;;;12.97;;
9128;SDS011;4599;50.906;6.786;2022-12-18T13:00:21;23.33;;;12.13;;
9128;SDS011;4599;50.906;6.786;2022-12-18T13:04:25;18.93;;;10.87;;
9128;SDS011;4599;50.906;6.786;2022-12-18T13:08:50;15.63;;;9.77;;
9128;SDS011;4599;50.906;6.786;2022-12-18T13:12:55;18.30;;;10.87;;
9128;SDS011;4599;50.906;6.786;2022-12-18T13:17:14;23.03;;;11.87;;
9128;SDS011;4599;50.906;6.786;2022-12-18T13:21:28;21.40;;;11.97;;
9128;SDS011;4599;50.906;6.786;2022-12-18T13:25:33;23.93;;;13.27;;
9128;SDS011;4599;50.906;6.786;2022-12-18T13:29:40;20.40;;;12.20;;
9128;SDS011;4599;50.906;6.786;2022-12-18T13:33:44;21.40;;;11.93;;
9128;SDS011;4599;50.906;6.786;2022-12-18T13:38:18;16.60;;;10.03;;
9128;SDS011;4599;50.906;6.786;2022-12-18T13:42:35;23.20;;;13.17;;
9128;SDS011;4599;50.906;6.786;2022-12-18T13:46:43;20.73;;;11.20;;
9128;SDS011;4599;50.906;6.786;2022-12-18T13:50:52;23.47;;;13.33;;
9128;SDS011;4599;50.906;6.786;2022-12-18T13:54:56;18.83;;;8.97;;
9128;SDS011;4599;50.906;6.786;2022-12-18T13:59:12;19.40;;;11.07;;
9128;SDS011;4599;50.906;6.786;2022-12-18T14:03:16;21.60;;;11.97;;
9128;SDS011;4599;50.906;6.786;2022-12-18T14:07:23;19.73;;;11.80;;
9128;SDS011;4599;50.906;6.786;2022-12-18T14:11:26;20.27;;;11.67;;
9128;SDS011;4599;50.906;6.786;2022-12-18T14:15:31;20.87;;;11.80;;
9128;SDS011;4599;50.906;6.786;2022-12-18T14:19:35;23.53;;;14.17;;
9128;SDS011;4599;50.906;6.786;2022-12-18T14:23:37;23.60;;;13.63;;
9128;SDS011;4599;50.906;6.786;2022-12-18T14:27:42;23.87;;;14.03;;
9128;SDS011;4599;50.906;6.786;2022-12-18T14:31:46;21.10;;;10.90;;
9128;SDS011;4599;50.906;6.786;2022-12-18T14:36:05;22.80;;;12.83;;
9128;SDS011;4599;50.906;6.786;2022-12-18T14:40:11;18.87;;;11.33;;
9128;SDS011;4599;50.906;6.786;2022-12-18T14:44:14;20.73;;;11.17;;
9128;SDS011;4599;50.906;6.786;2022-12-18T14:48:18;23.70;;;12.67;;
9128;SDS011;4599;50.906;6.786;2022-12-18T14:52:26;21.43;;;12.40;;
9128;SDS011;4599;50.906;6.786;2022-12-18T14:56:31;24.37;;;12.73;;
9128;SDS011;4599;50.906;6.786;2022-12-18T15:00:36;22.10;;;12.80;;
9128;SDS011;4599;50.906;6.786;2022-12-18T15:04:44;22.33;;;12.83;;
9128;SDS011;4599;50.906;6.786;2022-12-18T15:08:45;21.07;;;11.40;;
9128;SDS011;4599;50.906;6.786;2022-12-18T15:12:48;21.40;;;11.97;;
9128;SDS011;4599;50.906;6.786;2022-12-18T15:16:51;22.33;;;11.63;;
9128;SDS011;4599;50.906;6.786;2022-12-18T15:20:55;23.17;;;13.33;;
9128;SDS011;4599;50.906;6.786;2022-12-18T15:24:59;25.03;;;14.03;;
9128;SDS011;4599;50.906;6.786;2022-12-18T15:29:02;21.47;;;12.03;;
9128;SDS011;4599;50.906;6.786;2022-12-18T15:33:22;24.87;;;13.30;;
9128;SDS011;4599;50.906;6.786;2022-12-18T15:37:26;21.07;;;12.83;;
9128;SDS011;4599;50.906;6.786;2022-12-18T15:41:28;23.97;;;13.87;;
9128;SDS011;4599;50.906;6.786;2022-12-18T15:45:34;25.70;;;14.07;;
9128;SDS011;4599;50.906;6.786;2022-12-18T15:49:35;25.67;;;13.27;;
9128;SDS011;4599;50.906;6.786;2022-12-18T15:53:38;24.00;;;12.40;;
9128;SDS011;4599;50.906;6.786;2022-12-18T15:57:40;25.37;;;15.13;;
9128;SDS011;4599;50.906;6.786;2022-12-18T16:01:42;22.10;;;13.83;;
9128;SDS011;4599;50.906;6.786;2022-12-18T16:05:46;17.47;;;10.70;;
9128;SDS011;4599;50.906;6.786;2022-12-18T16:09:48;22.40;;;12.10;;
9128;SDS011;4599;50.906;6.786;2022-12-18T16:13:50;24.23;;;13.40;;
9128;SDS011;4599;50.906;6.786;2022-12-18T16:17:51;24.27;;;11.97;;
9128;SDS011;4599;50.906;6.786;2022-12-18T16:21:54;26.70;;;13.97;;
9128;SDS011;4599;50.906;6.786;2022-12-18T16:25:58;27.77;;;14.93;;
9128;SDS011;4599;50.906;6.786;2022-12-18T16:29:59;23.80;;;12.47;;
9128;SDS011;4599;50.906;6.786;2022-12-18T16:34:11;26.93;;;14.53;;
9128;SDS011;4599;50.906;6.786;2022-12-18T16:38:13;18.23;;;10.27;;
9128;SDS011;4599;50.906;6.786;2022-12-18T16:42:17;25.37;;;13.37;;
9128;SDS011;4599;50.906;6.786;2022-12-18T16:46:19;28.33;;;14.87;;
9128;SDS011;4599;50.906;6.786;2022-12-18T16:50:21;23.83;;;13.30;;
9128;SDS011;4599;50.906;6.786;2022-12-18T16:54:22;25.07;;;13.13;;
9128;SDS011;4599;50.906;6.786;2022-12-18T16:58:25;24.93;;;13.97;;
9128;SDS011;4599;50.906;6.786;2022-12-18T17:02:27;32.47;;;15.63;;
9128;SDS011;4599;50.906;6.786;2022-12-18T17:06:29;24.07;;;13.03;;
9128;SDS011;4599;50.906;6.786;2022-12-18T17:10:33;24.20;;;12.33;;
9128;SDS011;4599;50.906;6.786;2022-12-18T17:14:36;26.83;;;14.93;;
9128;SDS011;4599;50.906;6.786;2022-12-18T17:18:38;21.80;;;12.67;;
9128;SDS011;4599;50.906;6.786;2022-12-18T17:22:40;26.73;;;15.30;;
9128;SDS011;4599;50.906;6.786;2022-12-18T17:26:41;27.97;;;14.83;;
9128;SDS011;4599;50.906;6.786;2022-12-18T17:30:44;30.90;;;15.93;;
9128;SDS011;4599;50.906;6.786;2022-12-18T17:34:46;29.23;;;15.57;;
9128;SDS011;4599;50.906;6.786;2022-12-18T17:38:49;34.27;;;17.17;;
9128;SDS011;4599;50.906;6.786;2022-12-18T17:42:51;30.33;;;16.33;;
9128;SDS011;4599;50.906;6.786;2022-12-18T17:46:54;24.60;;;13.83;;
9128;SDS011;4599;50.906;6.786;2022-12-18T17:50:59;32.63;;;16.03;;
9128;SDS011;4599;50.906;6.786;2022-12-18T17:55:01;33.20;;;17.10;;
9128;SDS011;4599;50.906;6.786;2022-12-18T17:59:03;26.40;;;14.73;;
9128;SDS011;4599;50.906;6.786;2022-12-18T18:03:06;30.90;;;17.10;;
9128;SDS011;4599;50.906;6.786;2022-12-18T18:07:07;28.70;;;16.80;;
9128;SDS011;4599;50.906;6.786;2022-12-18T18:11:10;26.23;;;14.57;;
9128;SDS011;4599;50.906;6.786;2022-12-18T18:15:13;28.63;;;15.67;;
9128;SDS011;4599;50.906;6.786;2022-12-18T18:19:18;25.50;;;13.23;;
9128;SDS011;4599;50.906;6.786;2022-12-18T18:23:21;30.63;;;16.10;;
9128;SDS011;4599;50.906;6.786;2022-12-18T18:27:23;30.03;;;17.73;;
9128;SDS011;4599;50.906;6.786;2022-12-18T18:31:25;33.63;;;17.27;;
9128;SDS011;4599;50.906;6.786;2022-12-18T18:35:29;29.43;;;16.37;;
9128;SDS011;4599;50.906;6.786;2022-12-18T18:39:50;32.73;;;17.03;;
9128;SDS011;4599;50.906;6.786;2022-12-18T18:43:53;24.87;;;14.10;;
9128;SDS011;4599;50.906;6.786;2022-12-18T18:47:55;26.27;;;15.03;;
9128;SDS011;4599;50.906;6.786;2022-12-18T18:51:58;30.90;;;18.10;;
9128;SDS011;4599;50.906;6.786;2022-12-18T18:55:59;33.33;;;17.47;;
9128;SDS011;4599;50.906;6.786;2022-12-18T19:00:20;32.60;;;16.60;;
9128;SDS011;4599;50.906;6.786;2022-12-18T19:04:23;33.20;;;17.23;;
9128;SDS011;4599;50.906;6.786;2022-12-18T19:08:26;31.97;;;17.47;;
9128;SDS011;4599;50.906;6.786;2022-12-18T19:12:29;28.53;;;14.97;;
9128;SDS011;4599;50.906;6.786;2022-12-18T19:16:30;35.13;;;17.80;;
9128;SDS011;4599;50.906;6.786;2022-12-18T19:20:33;27.67;;;15.07;;
9128;SDS011;4599;50.906;6.786;2022-12-18T19:24:35;26.57;;;14.53;;
9128;SDS011;4599;50.906;6.786;2022-12-18T19:28:37;32.27;;;16.80;;
9128;SDS011;4599;50.906;6.786;2022-12-18T19:32:40;23.23;;;13.37;;
9128;SDS011;4599;50.906;6.786;2022-12-18T19:36:41;38.17;;;18.33;;
9128;SDS011;4599;50.906;6.786;2022-12-18T19:40:44;32.67;;;17.07;;
9128;SDS011;4599;50.906;6.786;2022-12-18T19:44:46;35.97;;;17.67;;
9128;SDS011;4599;50.906;6.786;2022-12-18T19:48:47;33.90;;;18.03;;
9128;SDS011;4599;50.906;6.786;2022-12-18T19:52:49;32.23;;;16.77;;
9128;SDS011;4599;50.906;6.786;2022-12-18T19:56:52;38.13;;;18.10;;
9128;SDS011;4599;50.906;6.786;2022-12-18T20:00:54;34.90;;;18.20;;
9128;SDS011;4599;50.906;6.786;2022-12-18T20:04:55;33.10;;;17.73;;
9128;SDS011;4599;50.906;6.786;2022-12-18T20:08:58;29.97;;;15.53;;
9128;SDS011;4599;50.906;6.786;2022-12-18T20:13:02;36.63;;;18.07;;
9128;SDS011;4599;50.906;6.786;2022-12-18T20:17:04;31.20;;;15.80;;
9128;SDS011;4599;50.906;6.786;2022-12-18T20:21:06;34.27;;;17.67;;
9128;SDS011;4599;50.906;6.786;2022-12-18T20:25:16;33.23;;;16.57;;
9128;SDS011;4599;50.906;6.786;2022-12-18T20:29:19;33.13;;;18.03;;
9128;SDS011;4599;50.906;6.786;2022-12-18T20:33:21;28.67;;;15.47;;
9128;SDS011;4599;50.906;6.786;2022-12-18T20:37:22;35.93;;;18.13;;
9128;SDS011;4599;50.906;6.786;2022-12-18T20:41:23;34.10;;;17.30;;
9128;SDS011;4599;50.906;6.786;2022-12-18T20:45:27;35.17;;;18.20;;
9128;SDS011;4599;50.906;6.786;2022-12-18T20:49:29;32.87;;;17.00;;
9128;SDS011;4599;50.906;6.786;2022-12-18T20:53:30;32.93;;;17.17;;
9128;SDS011;4599;50.906;6.786;2022-12-18T20:57:32;32.07;;;17.70;;
9128;SDS011;4599;50.906;6.786;2022-12-18T21:01:36;29.17;;;16.03;;
9128;SDS011;4599;50.906;6.786;2022-12-18T21:05:42;32.50;;;16.77;;
9128;SDS011;4599;50.906;6.786;2022-12-18T21:09:44;31.17;;;16.97;;
9128;SDS011;4599;50.906;6.786;2022-12-18T21:13:45;29.37;;;14.47;;
9128;SDS011;4599;50.906;6.786;2022-12-18T21:17:48;31.23;;;16.17;;
9128;SDS011;4599;50.906;6.786;2022-12-18T21:21:50;33.27;;;17.53;;
9128;SDS011;4599;50.906;6.786;2022-12-18T21:25:52;32.63;;;18.33;;
9128;SDS011;4599;50.906;6.786;2022-12-18T21:29:56;33.40;;;17.67;;
9128;SDS011;4599;50.906;6.786;2022-12-18T21:34:01;34.03;;;17.67;;
9128;SDS011;4599;50.906;6.786;2022-12-18T21:38:04;35.13;;;19.13;;
9128;SDS011;4599;50.906;6.786;2022-12-18T21:42:06;40.93;;;18.57;;
9128;SDS011;4599;50.906;6.786;2022-12-18T21:46:07;36.30;;;19.07;;
9128;SDS011;4599;50.906;6.786;2022-12-18T21:50:10;36.87;;;19.07;;
9128;SDS011;4599;50.906;6.786;2022-12-18T21:54:12;35.60;;;18.90;;
9128;SDS011;4599;50.906;6.786;2022-12-18T21:58:13;34.43;;;17.50;;
9128;SDS011;4599;50.906;6.786;2022-12-18T22:02:15;36.30;;;19.43;;
9128;SDS011;4599;50.906;6.786;2022-12-18T22:06:19;33.67;;;18.00;;
9128;SDS011;4599;50.906;6.786;2022-12-18T22:10:21;35.37;;;19.03;;
9128;SDS011;4599;50.906;6.786;2022-12-18T22:14:22;38.63;;;19.33;;
9128;SDS011;4599;50.906;6.786;2022-12-18T22:18:24;40.37;;;20.00;;
9128;SDS011;4599;50.906;6.786;2022-12-18T22:22:26;40.10;;;20.13;;
9128;SDS011;4599;50.906;6.786;2022-12-18T22:26:28;42.80;;;21.93;;
9128;SDS011;4599;50.906;6.786;2022-12-18T22:30:39;37.97;;;18.93;;
9128;SDS011;4599;50.906;6.786;2022-12-18T22:34:41;41.53;;;20.50;;
9128;SDS011;4599;50.906;6.786;2022-12-18T22:38:44;41.50;;;21.33;;
9128;SDS011;4599;50.906;6.786;2022-12-18T22:42:46;38.27;;;19.83;;
9128;SDS011;4599;50.906;6.786;2022-12-18T22:46:51;41.20;;;20.07;;
9128;SDS011;4599;50.906;6.786;2022-12-18T22:51:07;39.97;;;21.13;;
9128;SDS011;4599;50.906;6.786;2022-12-18T22:55:13;39.63;;;20.00;;
9128;SDS011;4599;50.906;6.786;2022-12-18T22:59:16;39.13;;;21.13;;
9128;SDS011;4599;50.906;6.786;2022-12-18T23:03:19;41.00;;;19.80;;
9128;SDS011;4599;50.906;6.786;2022-12-18T23:07:20;33.10;;;18.27;;
9128;SDS011;4599;50.906;6.786;2022-12-18T23:11:23;36.03;;;20.20;;
9128;SDS011;4599;50.906;6.786;2022-12-18T23:15:25;32.93;;;18.33;;
9128;SDS011;4599;50.906;6.786;2022-12-18T23:19:28;37.10;;;19.87;;
9128;SDS011;4599;50.906;6.786;2022-12-18T23:23:31;32.87;;;18.60;;
9128;SDS011;4599;50.906;6.786;2022-12-18T23:27:34;40.50;;;19.70;;
9128;SDS011;4599;50.906;6.786;2022-12-18T23:31:36;41.03;;;20.30;;
9128;SDS011;4599;50.906;6.786;2022-12-18T23:35:39;35.83;;;18.20;;
9128;SDS011;4599;50.906;6.786;2022-12-18T23:39:41;38.63;;;20.43;;
9128;SDS011;4599;50.906;6.786;2022-12-18T23:43:43;36.00;;;17.57;;
9128;SDS011;4599;50.906;6.786;2022-12-18T23:47:46;39.30;;;21.20;;
9128;SDS011;4599;50.906;6.786;2022-12-18T23:51:52;43.07;;;21.27;;
9128;SDS011;4599;50.906;6.786;2022-12-18T23:55:53;37.43;;;20.53;;
9128;SDS011;4599;50.906;6.786;2022-12-18T23:59:58;41.03;;;20.33;;
